Time;durP1;ratioP1;P1;durP2;ratioP2;P2;SDS_P1;SDS_P2;PMS_P1;PMS_P2;Temp;Humidity;BMP_temperature;BMP_pressure;BME280_temperature;BME280_humidity;BME280_pressure;Samples;Min_cycle;Max_cycle;Signal;HPM_P1;HPM_P2
2020/12/13 00:02:07;;;;;;;8.90;6.50;;;5.90;99.90;;;;;;4953438;29;20215;-41
2020/12/13 00:04:34;;;;;;;7.55;6.75;;;5.90;99.90;;;;;;4953231;29;20671;-41
2020/12/13 00:07:01;;;;;;;7.43;5.70;;;5.90;99.90;;;;;;4953240;29;21882;-40
2020/12/13 00:09:28;;;;;;;5.70;5.20;;;5.90;99.90;;;;;;4953246;29;20630;-40
2020/12/13 00:11:55;;;;;;;5.22;4.72;;;6.00;99.90;;;;;;4953187;29;20262;-41
2020/12/13 00:14:22;;;;;;;5.28;4.85;;;6.00;99.90;;;;;;4953412;29;20232;-40
2020/12/13 00:16:51;;;;;;;5.05;4.65;;;6.00;99.90;;;;;;4953417;29;20634;-40
2020/12/13 00:19:19;;;;;;;5.88;5.32;;;6.00;99.90;;;;;;4953355;28;20219;-40
2020/12/13 00:21:49;;;;;;;5.22;4.82;;;6.10;99.90;;;;;;4956261;29;20215;-41
2020/12/13 00:24:16;;;;;;;5.10;4.63;;;6.10;99.90;;;;;;4956477;29;20208;-42
2020/12/13 00:26:43;;;;;;;5.13;4.73;;;6.10;99.90;;;;;;4956846;28;20226;-41
2020/12/13 00:29:10;;;;;;;5.10;4.70;;;6.20;99.90;;;;;;4956515;28;20309;-41
2020/12/13 00:31:37;;;;;;;5.17;4.77;;;6.20;99.90;;;;;;4956391;28;20644;-44
2020/12/13 00:34:05;;;;;;;4.60;4.20;;;6.20;99.90;;;;;;4956382;29;20262;-40
2020/12/13 00:36:33;;;;;;;5.27;4.87;;;6.20;99.90;;;;;;4956382;28;20294;-41
2020/12/13 00:39:00;;;;;;;4.53;4.20;;;6.20;99.90;;;;;;4956485;29;20290;-41
2020/12/13 00:41:27;;;;;;;4.82;4.43;;;6.10;99.90;;;;;;4956239;29;20302;-41
2020/12/13 00:43:54;;;;;;;4.93;4.43;;;6.10;99.90;;;;;;4956381;28;20254;-41
2020/12/13 00:46:21;;;;;;;5.00;4.47;;;6.20;99.90;;;;;;4956265;29;20317;-41
2020/12/13 00:48:50;;;;;;;4.83;4.43;;;6.20;99.90;;;;;;4956141;29;20673;-41
2020/12/13 00:51:23;;;;;;;4.53;4.13;;;6.20;99.90;;;;;;4955992;28;20255;-40
2020/12/13 00:53:51;;;;;;;4.20;3.90;;;6.20;99.90;;;;;;4955890;29;20286;-41
2020/12/13 00:56:18;;;;;;;5.13;4.63;;;6.20;99.90;;;;;;4955968;28;20302;-45
2020/12/13 00:58:45;;;;;;;5.13;4.73;;;6.20;99.90;;;;;;4956167;29;20237;-42
2020/12/13 01:01:12;;;;;;;4.55;4.15;;;6.20;99.90;;;;;;4955777;28;20253;-41
2020/12/13 01:03:39;;;;;;;5.25;4.85;;;6.20;99.90;;;;;;4955797;29;20302;-42
2020/12/13 01:06:06;;;;;;;6.17;4.97;;;6.30;99.90;;;;;;4955723;28;20295;-42
2020/12/13 01:08:33;;;;;;;5.03;4.60;;;6.30;99.90;;;;;;4955533;29;20672;-42
2020/12/13 01:11:01;;;;;;;5.23;4.40;;;6.30;99.90;;;;;;4955655;29;20289;-41
2020/12/13 01:13:28;;;;;;;5.30;4.90;;;6.30;99.90;;;;;;4955699;29;20233;-41
2020/12/13 01:15:59;;;;;;;5.80;5.30;;;6.30;99.90;;;;;;4955706;29;20218;-41
2020/12/13 01:18:27;;;;;;;5.60;5.20;;;6.30;99.90;;;;;;4955574;29;20212;-41
2020/12/13 01:20:54;;;;;;;6.90;6.30;;;6.30;99.90;;;;;;4955675;29;20211;-42
2020/12/13 01:23:21;;;;;;;6.37;5.77;;;6.30;99.90;;;;;;4955703;28;20303;-41
2020/12/13 01:25:48;;;;;;;5.13;4.63;;;6.30;99.90;;;;;;4955789;28;20629;-41
2020/12/13 01:28:16;;;;;;;5.95;5.50;;;6.30;99.90;;;;;;4955512;29;20247;-41
2020/12/13 01:30:43;;;;;;;8.57;5.68;;;6.40;99.90;;;;;;4955243;28;20290;-42
2020/12/13 01:33:10;;;;;;;4.47;4.15;;;6.40;99.90;;;;;;4955699;29;20549;-41
2020/12/13 01:35:39;;;;;;;5.60;5.10;;;6.40;99.90;;;;;;4955622;28;20266;-41
2020/12/13 01:38:06;;;;;;;6.60;6.00;;;6.30;99.90;;;;;;4955329;28;20207;-41
2020/12/13 01:40:33;;;;;;;5.97;5.47;;;6.30;99.90;;;;;;4955326;29;20214;-41
2020/12/13 01:43:00;;;;;;;6.15;5.63;;;6.30;99.90;;;;;;4955219;29;20247;-41
2020/12/13 01:45:28;;;;;;;5.40;5.00;;;6.30;99.90;;;;;;4955415;29;20211;-46
2020/12/13 01:47:55;;;;;;;7.38;6.68;;;6.30;99.90;;;;;;4955151;28;20216;-42
2020/12/13 01:50:36;;;;;;;7.43;6.72;;;6.20;99.90;;;;;;4955535;29;20243;-47
2020/12/13 01:53:17;;;;;;;6.63;6.03;;;6.20;99.90;;;;;;4955166;29;20229;-44
2020/12/13 01:55:46;;;;;;;6.78;6.18;;;6.20;99.90;;;;;;4954922;29;20355;-44
2020/12/13 01:58:17;;;;;;;6.05;5.47;;;6.20;99.90;;;;;;4954789;28;20302;-45
2020/12/13 02:00:47;;;;;;;6.67;6.10;;;6.20;99.90;;;;;;4954827;29;20254;-43
2020/12/13 02:03:19;;;;;;;6.70;6.20;;;6.20;99.90;;;;;;4954953;29;20323;-44
2020/12/13 02:05:52;;;;;;;7.07;6.37;;;6.20;99.90;;;;;;4954873;29;20218;-43
2020/12/13 02:08:22;;;;;;;6.10;5.60;;;6.30;99.90;;;;;;4954582;29;20243;-44
2020/12/13 02:10:50;;;;;;;6.45;5.95;;;6.30;99.90;;;;;;4954891;29;20306;-44
2020/12/13 02:13:18;;;;;;;6.03;5.53;;;6.30;99.90;;;;;;4954786;28;20298;-42
2020/12/13 02:15:46;;;;;;;6.43;5.90;;;6.30;99.90;;;;;;4954633;29;20222;-42
2020/12/13 02:18:14;;;;;;;6.15;5.65;;;6.30;99.90;;;;;;4954616;29;20651;-42
2020/12/13 02:20:41;;;;;;;6.85;6.20;;;6.30;99.90;;;;;;4954423;29;20282;-42
2020/12/13 02:23:09;;;;;;;6.53;6.03;;;6.30;99.90;;;;;;4954535;29;20745;-42
2020/12/13 02:25:37;;;;;;;6.60;6.00;;;6.30;99.90;;;;;;4954716;28;20208;-42
2020/12/13 02:28:04;;;;;;;6.53;5.93;;;6.40;99.90;;;;;;4954613;28;20217;-41
2020/12/13 02:30:31;;;;;;;7.47;5.90;;;6.30;99.90;;;;;;4954529;29;20215;-41
2020/12/13 02:32:59;;;;;;;6.75;6.25;;;6.30;99.90;;;;;;4954363;29;20216;-43
2020/12/13 02:35:27;;;;;;;6.77;6.27;;;6.20;99.90;;;;;;4954334;29;20249;-43
2020/12/13 02:37:54;;;;;;;6.68;6.18;;;6.20;99.90;;;;;;4954297;29;20258;-41
2020/12/13 02:40:22;;;;;;;6.53;6.03;;;6.30;99.90;;;;;;4954363;29;20575;-41
2020/12/13 02:42:49;;;;;;;6.10;5.60;;;6.30;99.90;;;;;;4953972;28;20207;-43
2020/12/13 02:45:16;;;;;;;5.53;5.13;;;6.40;99.90;;;;;;4954298;29;20208;-42
2020/12/13 02:47:43;;;;;;;6.40;5.80;;;6.40;99.90;;;;;;4954063;29;20271;-42
2020/12/13 02:50:10;;;;;;;5.47;5.07;;;6.40;99.90;;;;;;4954086;28;20214;-42
2020/12/13 02:52:37;;;;;;;5.20;4.80;;;6.40;99.90;;;;;;4954141;28;20294;-41
2020/12/13 02:55:05;;;;;;;5.97;5.47;;;6.40;99.90;;;;;;4953873;29;20399;-41
2020/12/13 02:57:32;;;;;;;6.30;5.77;;;6.40;99.90;;;;;;4953895;28;20757;-43
2020/12/13 02:59:59;;;;;;;5.90;5.40;;;6.40;99.90;;;;;;4954163;29;20298;-41
2020/12/13 03:02:26;;;;;;;7.17;5.53;;;6.40;99.90;;;;;;4953796;28;20295;-42
2020/12/13 03:04:53;;;;;;;5.37;4.90;;;6.30;99.90;;;;;;4953983;28;20552;-42
2020/12/13 03:07:20;;;;;;;6.65;6.05;;;6.30;99.90;;;;;;4954016;29;20239;-41
2020/12/13 03:09:47;;;;;;;6.07;5.57;;;6.30;99.90;;;;;;4953936;29;20211;-41
2020/12/13 03:12:14;;;;;;;5.77;5.37;;;6.30;99.90;;;;;;4953868;29;20317;-41
2020/12/13 03:14:42;;;;;;;5.90;5.40;;;6.30;99.90;;;;;;4953950;28;20239;-42
2020/12/13 03:17:09;;;;;;;5.25;4.85;;;6.40;99.90;;;;;;4953713;29;20262;-43
2020/12/13 03:19:36;;;;;;;6.32;5.82;;;6.30;99.90;;;;;;4954061;29;20233;-42
2020/12/13 03:22:03;;;;;;;6.60;6.00;;;6.30;99.90;;;;;;4953995;29;20242;-42
2020/12/13 03:24:30;;;;;;;6.53;6.03;;;6.40;99.90;;;;;;4953924;28;20203;-42
2020/12/13 03:26:57;;;;;;;6.27;5.77;;;6.40;99.90;;;;;;4953925;29;20238;-42
2020/12/13 03:29:24;;;;;;;6.10;5.53;;;6.40;99.90;;;;;;4953788;29;20250;-41
2020/12/13 03:31:53;;;;;;;5.87;5.40;;;6.40;99.90;;;;;;4953588;28;20215;-39
2020/12/13 03:34:21;;;;;;;6.07;5.57;;;6.40;99.90;;;;;;4953714;29;20590;-39
2020/12/13 03:36:48;;;;;;;6.50;6.00;;;6.30;99.90;;;;;;4953463;28;20302;-40
2020/12/13 03:39:15;;;;;;;5.93;5.43;;;6.30;99.90;;;;;;4953659;28;20242;-42
2020/12/13 03:41:42;;;;;;;6.05;5.55;;;6.30;99.90;;;;;;4953578;29;20254;-42
2020/12/13 03:44:12;;;;;;;5.93;5.43;;;6.40;99.90;;;;;;4953453;29;20212;-42
2020/12/13 03:46:40;;;;;;;6.57;5.97;;;6.40;99.90;;;;;;4953566;29;20212;-42
2020/12/13 03:49:08;;;;;;;6.32;5.82;;;6.40;99.90;;;;;;4953689;29;20266;-41
2020/12/13 03:51:35;;;;;;;6.20;5.70;;;6.40;99.90;;;;;;4953587;29;20215;-40
2020/12/13 03:54:03;;;;;;;6.53;6.03;;;6.40;99.90;;;;;;4953339;28;20621;-40
2020/12/13 03:56:30;;;;;;;7.43;6.80;;;6.40;99.90;;;;;;4956102;29;20410;-40
2020/12/13 03:58:57;;;;;;;7.10;6.50;;;6.40;99.90;;;;;;4956993;28;20302;-40
2020/12/13 04:01:23;;;;;;;7.47;6.87;;;6.50;99.90;;;;;;4957014;29;20724;-41
2020/12/13 04:03:52;;;;;;;6.47;5.87;;;6.50;99.90;;;;;;4957151;28;20222;-44
2020/12/13 04:06:20;;;;;;;7.13;6.53;;;6.50;99.90;;;;;;4957282;29;20223;-42
2020/12/13 04:08:47;;;;;;;7.75;6.97;;;6.50;99.90;;;;;;4956751;28;20246;-42
2020/12/13 04:11:14;;;;;;;6.90;6.30;;;6.50;99.90;;;;;;4956919;29;20266;-42
2020/12/13 04:13:41;;;;;;;7.40;6.70;;;6.50;99.90;;;;;;4957076;29;20305;-41
2020/12/13 04:16:12;;;;;;;7.13;6.53;;;6.40;99.90;;;;;;4956804;29;20315;-42
2020/12/13 04:18:39;;;;;;;7.15;6.45;;;6.40;99.90;;;;;;4956709;29;20729;-44
2020/12/13 04:21:06;;;;;;;7.57;6.88;;;6.40;99.90;;;;;;4956766;29;20211;-42
2020/12/13 04:23:34;;;;;;;7.45;6.75;;;6.50;99.90;;;;;;4956716;29;20218;-44
2020/12/13 04:26:01;;;;;;;7.93;7.00;;;6.40;99.90;;;;;;4956557;28;20242;-46
2020/12/13 04:28:28;;;;;;;8.63;7.82;;;6.40;99.90;;;;;;4956847;29;20295;-42
2020/12/13 04:30:55;;;;;;;8.00;7.22;;;6.40;99.90;;;;;;4956835;29;20218;-43
2020/12/13 04:33:22;;;;;;;8.05;7.35;;;6.50;99.90;;;;;;4956621;28;20215;-45
2020/12/13 04:35:49;;;;;;;8.13;7.32;;;6.50;99.90;;;;;;4956512;29;20228;-42
2020/12/13 04:38:15;;;;;;;7.95;7.15;;;6.50;99.90;;;;;;4956487;28;20219;-44
2020/12/13 04:40:44;;;;;;;10.02;9.02;;;6.50;99.90;;;;;;4956488;29;20310;-42
2020/12/13 04:43:11;;;;;;;7.70;6.93;;;6.50;99.90;;;;;;4956580;28;20290;-41
2020/12/13 04:45:38;;;;;;;8.73;7.93;;;6.50;99.90;;;;;;4956420;29;20352;-42
2020/12/13 04:48:07;;;;;;;9.57;8.03;;;6.50;99.90;;;;;;4956247;29;20212;-43
2020/12/13 04:50:36;;;;;;;9.07;8.17;;;6.50;99.90;;;;;;4956335;29;20262;-40
2020/12/13 04:53:05;;;;;;;9.43;8.52;;;6.60;99.90;;;;;;4956228;29;20658;-40
2020/12/13 04:55:43;;;;;;;8.57;7.78;;;6.60;99.90;;;;;;4956327;28;20266;-40
2020/12/13 04:58:14;;;;;;;9.65;8.75;;;6.60;99.90;;;;;;4956200;29;20290;-40
2020/12/13 05:00:45;;;;;;;10.30;9.35;;;6.60;99.90;;;;;;4955994;29;20571;-42
2020/12/13 05:03:15;;;;;;;10.00;8.98;;;6.60;99.90;;;;;;4956086;28;20306;-41
2020/12/13 05:05:42;;;;;;;9.10;8.20;;;6.60;99.90;;;;;;4955579;28;20239;-41
2020/12/13 05:08:09;;;;;;;10.63;9.50;;;6.70;99.90;;;;;;4955961;28;20275;-41
2020/12/13 05:10:38;;;;;;;9.93;8.93;;;6.60;99.90;;;;;;4955943;29;20212;-40
2020/12/13 05:13:06;;;;;;;9.82;8.82;;;6.60;99.90;;;;;;4956116;28;20250;-43
2020/12/13 05:15:35;;;;;;;9.90;8.90;;;6.60;99.90;;;;;;4955784;29;20335;-42
2020/12/13 05:18:02;;;;;;;10.33;9.23;;;6.50;99.90;;;;;;4955922;28;20596;-41
2020/12/13 05:20:29;;;;;;;10.75;9.63;;;6.50;99.90;;;;;;4955890;28;20208;-40
2020/12/13 05:22:58;;;;;;;11.68;10.13;;;6.50;99.90;;;;;;4955775;28;20239;-48
2020/12/13 05:25:32;;;;;;;10.73;9.50;;;6.60;99.90;;;;;;4955757;29;20635;-43
2020/12/13 05:28:02;;;;;;;9.82;8.90;;;6.50;99.90;;;;;;4955480;28;20215;-43
2020/12/13 05:30:34;;;;;;;10.50;9.32;;;6.60;99.90;;;;;;4955405;28;20250;-41
2020/12/13 05:33:04;;;;;;;10.93;9.93;;;6.60;99.90;;;;;;4955382;29;20226;-40
2020/12/13 05:35:31;;;;;;;10.80;9.33;;;6.50;99.90;;;;;;4954705;29;20703;-41
2020/12/13 05:37:58;;;;;;;10.60;9.50;;;6.50;99.90;;;;;;4955413;28;20239;-41
2020/12/13 05:40:25;;;;;;;9.93;9.02;;;6.50;99.90;;;;;;4955269;29;20211;-41
2020/12/13 05:43:00;;;;;;;11.53;10.33;;;6.50;99.90;;;;;;4955139;28;20239;-44
2020/12/13 05:48:31;;;;;;;10.68;9.63;;;6.60;99.90;;;;;;4955321;29;20306;-42
2020/12/13 05:51:15;;;;;;;11.57;10.48;;;6.60;99.90;;;;;;4955118;29;20303;-42
2020/12/13 05:53:43;;;;;;;12.30;11.00;;;6.60;99.90;;;;;;4955201;29;20302;-41
2020/12/13 05:56:21;;;;;;;10.63;9.53;;;6.60;99.90;;;;;;4954716;28;20720;-42
2020/12/13 05:58:50;;;;;;;11.10;9.87;;;6.50;99.90;;;;;;4954925;29;20216;-41
2020/12/13 06:01:22;;;;;;;11.60;10.40;;;6.50;99.90;;;;;;4954697;29;20722;-41
2020/12/13 06:03:53;;;;;;;11.10;10.00;;;6.50;99.90;;;;;;4954793;29;20314;-41
2020/12/13 06:06:25;;;;;;;12.75;10.38;;;6.50;99.90;;;;;;4955099;29;20208;-42
2020/12/13 06:09:06;;;;;;;13.73;11.43;;;6.50;99.90;;;;;;4954622;29;20254;-41
2020/12/13 06:11:51;;;;;;;11.57;10.43;;;6.40;99.90;;;;;;4954796;29;20270;-41
2020/12/13 06:14:20;;;;;;;11.90;10.27;;;6.40;99.90;;;;;;4954608;29;20235;-41
2020/12/13 06:16:48;;;;;;;13.55;12.18;;;6.40;99.90;;;;;;4954829;29;20295;-43
2020/12/13 06:19:18;;;;;;;12.47;11.17;;;6.40;99.90;;;;;;4954067;28;20755;-43
2020/12/13 06:21:47;;;;;;;13.10;11.33;;;6.50;99.90;;;;;;4954594;29;20666;-41
2020/12/13 06:24:14;;;;;;;13.45;11.65;;;6.50;99.90;;;;;;4954482;29;20314;-41
2020/12/13 06:26:42;;;;;;;12.00;10.63;;;6.50;99.90;;;;;;4954359;29;20251;-42
2020/12/13 06:29:09;;;;;;;13.73;11.98;;;6.50;99.90;;;;;;4954695;28;20212;-42
2020/12/13 06:31:39;;;;;;;15.00;11.87;;;6.40;99.90;;;;;;4954550;29;20207;-41
2020/12/13 06:34:07;;;;;;;12.23;10.77;;;6.50;99.90;;;;;;4954414;28;20211;-42
2020/12/13 06:36:36;;;;;;;12.67;11.33;;;6.50;99.90;;;;;;4954406;28;20208;-42
2020/12/13 06:39:12;;;;;;;13.20;11.80;;;6.50;99.90;;;;;;4954180;29;20543;-41
2020/12/13 06:41:41;;;;;;;13.23;11.60;;;6.50;99.90;;;;;;4954510;29;20211;-43
2020/12/13 06:44:09;;;;;;;13.20;10.90;;;6.60;99.90;;;;;;4954368;28;20674;-41
2020/12/13 06:46:40;;;;;;;12.32;11.05;;;6.60;99.90;;;;;;4954122;29;20618;-42
2020/12/13 06:49:08;;;;;;;13.17;11.77;;;6.50;99.90;;;;;;4954287;29;20212;-42
2020/12/13 06:51:38;;;;;;;11.87;10.20;;;6.50;99.90;;;;;;4954075;29;20207;-41
2020/12/13 06:54:06;;;;;;;14.57;11.90;;;6.60;99.90;;;;;;4954135;29;20309;-42
2020/12/13 06:56:34;;;;;;;12.27;10.63;;;6.60;99.90;;;;;;4953792;29;20234;-44
2020/12/13 06:59:03;;;;;;;13.37;11.07;;;6.60;99.90;;;;;;4954051;28;20215;-42
2020/12/13 07:01:32;;;;;;;12.57;10.65;;;6.60;99.90;;;;;;4953869;28;20239;-45
2020/12/13 07:04:23;;;;;;;12.33;11.03;;;6.60;99.90;;;;;;4953983;29;20211;-43
2020/12/13 07:06:56;;;;;;;12.38;10.68;;;6.60;99.90;;;;;;4954122;28;20294;-42
2020/12/13 07:09:24;;;;;;;13.27;11.88;;;6.60;99.90;;;;;;4953869;28;20305;-41
2020/12/13 07:11:53;;;;;;;12.88;11.55;;;6.60;99.90;;;;;;4953902;29;20219;-42
2020/12/13 07:14:22;;;;;;;13.40;12.03;;;6.50;99.90;;;;;;4953697;29;20266;-41
2020/12/13 07:16:59;;;;;;;13.10;11.52;;;6.60;99.90;;;;;;4953873;29;20294;-41
2020/12/13 07:19:30;;;;;;;12.50;11.20;;;6.60;99.90;;;;;;4953830;29;20211;-41
2020/12/13 07:22:04;;;;;;;13.68;12.20;;;6.60;99.90;;;;;;4953696;29;20215;-41
2020/12/13 07:24:31;;;;;;;12.43;11.13;;;6.60;99.90;;;;;;4954325;29;20298;-41
2020/12/13 07:26:59;;;;;;;12.40;11.10;;;6.60;99.90;;;;;;4953664;29;20248;-41
2020/12/13 07:29:28;;;;;;;10.27;9.23;;;6.60;99.90;;;;;;4954914;28;20226;-41
2020/12/13 07:31:56;;;;;;;12.70;11.45;;;6.60;99.90;;;;;;4957633;29;20675;-41
2020/12/13 07:34:23;;;;;;;12.47;11.17;;;6.60;99.90;;;;;;4957327;29;20315;-41
2020/12/13 07:36:50;;;;;;;12.67;10.80;;;6.60;99.90;;;;;;4957288;29;20206;-41
2020/12/13 07:39:18;;;;;;;13.73;11.67;;;6.70;99.90;;;;;;4957568;29;20306;-41
2020/12/13 07:41:47;;;;;;;12.20;10.98;;;6.70;99.90;;;;;;4957425;29;20238;-42
2020/12/13 07:44:16;;;;;;;12.52;11.43;;;6.70;99.90;;;;;;4957416;29;20270;-41
2020/12/13 07:46:44;;;;;;;12.65;10.90;;;6.70;99.90;;;;;;4957601;29;20222;-41
2020/12/13 07:49:13;;;;;;;10.97;9.87;;;6.70;99.90;;;;;;4957288;29;20598;-41
2020/12/13 07:51:41;;;;;;;11.37;10.27;;;6.80;99.90;;;;;;4957203;29;20310;-42
2020/12/13 07:54:13;;;;;;;11.67;10.43;;;6.80;99.90;;;;;;4958025;29;20668;-41
2020/12/13 07:56:42;;;;;;;12.37;11.17;;;6.80;99.90;;;;;;4957267;28;20313;-41
2020/12/13 07:59:14;;;;;;;10.13;9.13;;;6.80;99.90;;;;;;4957082;28;20294;-42
2020/12/13 08:01:43;;;;;;;11.47;10.37;;;6.80;99.90;;;;;;4957021;29;20718;-42
2020/12/13 08:04:11;;;;;;;10.30;9.30;;;6.80;99.90;;;;;;4957044;28;20324;-42
2020/12/13 08:06:38;;;;;;;11.23;10.13;;;6.90;99.90;;;;;;4956878;28;20203;-43
2020/12/13 08:09:10;;;;;;;11.17;9.97;;;6.90;99.90;;;;;;4957088;29;20341;-42
2020/12/13 08:11:38;;;;;;;10.00;9.00;;;6.80;99.90;;;;;;4956799;28;20278;-44
2020/12/13 08:14:08;;;;;;;12.10;10.80;;;6.80;99.90;;;;;;4956600;29;20694;-43
2020/12/13 08:16:37;;;;;;;10.93;9.60;;;6.80;99.90;;;;;;4956817;29;20231;-41
2020/12/13 08:19:13;;;;;;;12.53;10.27;;;6.80;99.90;;;;;;4956673;28;20212;-41
2020/12/13 08:21:51;;;;;;;10.65;9.60;;;6.90;99.90;;;;;;4957010;29;20301;-41
2020/12/13 08:24:18;;;;;;;11.13;10.10;;;6.80;99.90;;;;;;4956778;28;20207;-43
2020/12/13 08:26:47;;;;;;;11.38;10.15;;;6.90;99.90;;;;;;4956714;29;20580;-41
2020/12/13 08:29:16;;;;;;;12.00;9.88;;;7.00;99.90;;;;;;4956567;29;20613;-40
2020/12/13 08:31:44;;;;;;;10.23;9.23;;;7.10;99.90;;;;;;4956243;28;20223;-41
2020/12/13 08:34:12;;;;;;;11.30;10.13;;;7.10;99.90;;;;;;4956681;29;20216;-41
2020/12/13 08:36:39;;;;;;;10.80;9.80;;;7.10;99.90;;;;;;4956609;29;20816;-41
2020/12/13 08:39:10;;;;;;;11.70;10.57;;;7.10;99.90;;;;;;4956607;28;20239;-41
2020/12/13 08:41:44;;;;;;;11.13;10.03;;;7.10;99.90;;;;;;4955743;28;20230;-41
2020/12/13 08:44:32;;;;;;;11.43;10.17;;;7.20;99.90;;;;;;4956381;28;20305;-41
2020/12/13 08:47:01;;;;;;;10.75;9.68;;;7.20;99.90;;;;;;4956431;28;20583;-41
2020/12/13 08:49:31;;;;;;;10.73;9.63;;;7.20;99.90;;;;;;4956270;28;20658;-42
2020/12/13 08:52:12;;;;;;;10.90;9.80;;;7.20;99.90;;;;;;4956390;28;20254;-42
2020/12/13 08:54:57;;;;;;;10.38;9.05;;;7.30;99.90;;;;;;4956242;29;20330;-40
2020/12/13 08:57:29;;;;;;;10.57;9.55;;;7.30;99.90;;;;;;4955997;28;20239;-43
2020/12/13 09:00:07;;;;;;;10.27;9.17;;;7.30;99.90;;;;;;4956186;29;20219;-48
2020/12/13 09:02:56;;;;;;;10.73;9.73;;;7.30;99.90;;;;;;4955907;29;20211;-40
2020/12/13 09:05:27;;;;;;;11.63;10.50;;;7.20;99.90;;;;;;4956203;29;20429;-41
2020/12/13 09:07:56;;;;;;;9.07;8.20;;;7.20;99.90;;;;;;4955814;29;20338;-41
2020/12/13 09:10:24;;;;;;;9.17;8.37;;;7.20;99.90;;;;;;4956032;29;20234;-40
2020/12/13 09:12:52;;;;;;;9.57;8.67;;;7.20;99.90;;;;;;4955879;28;20220;-42
2020/12/13 09:15:22;;;;;;;7.97;7.37;;;7.20;99.90;;;;;;4955371;28;20227;-43
2020/12/13 09:17:53;;;;;;;9.15;8.27;;;7.20;99.90;;;;;;4955906;29;20238;-41
2020/12/13 09:20:24;;;;;;;10.13;8.63;;;7.20;99.90;;;;;;4956108;28;20215;-41
2020/12/13 09:23:10;;;;;;;9.27;8.37;;;7.20;99.90;;;;;;4955565;29;20217;-41
2020/12/13 09:25:38;;;;;;;9.90;8.93;;;7.20;99.90;;;;;;4956050;29;20298;-41
2020/12/13 09:28:05;;;;;;;7.97;7.27;;;7.20;99.90;;;;;;4955347;28;20218;-40
2020/12/13 09:30:33;;;;;;;8.90;8.10;;;7.30;99.90;;;;;;4955737;29;20294;-42
2020/12/13 09:33:00;;;;;;;9.30;8.50;;;7.30;99.90;;;;;;4955683;28;20243;-43
2020/12/13 09:35:30;;;;;;;8.55;7.68;;;7.40;99.90;;;;;;4955578;28;20334;-42
2020/12/13 09:37:58;;;;;;;9.13;8.02;;;7.40;99.90;;;;;;4957120;29;20211;-42
2020/12/13 09:40:25;;;;;;;8.85;8.02;;;7.40;99.90;;;;;;4955163;28;20254;-42
2020/12/13 09:42:53;;;;;;;9.13;7.97;;;7.30;99.90;;;;;;4955720;29;20619;-43
2020/12/13 09:45:20;;;;;;;8.48;7.68;;;7.30;99.90;;;;;;4955587;28;20213;-42
2020/12/13 09:47:48;;;;;;;9.07;8.17;;;7.30;99.90;;;;;;4955234;28;20637;-41
2020/12/13 09:50:17;;;;;;;8.10;7.28;;;7.40;99.90;;;;;;4955395;28;20554;-39
2020/12/13 09:52:44;;;;;;;7.73;7.03;;;7.30;99.90;;;;;;4953946;28;20218;-42
2020/12/13 09:55:11;;;;;;;7.13;6.43;;;7.40;99.90;;;;;;4955033;29;20231;-42
2020/12/13 09:57:38;;;;;;;7.30;6.70;;;7.40;99.90;;;;;;4955079;29;20226;-41
2020/12/13 10:00:06;;;;;;;7.97;7.28;;;7.40;99.90;;;;;;4955280;29;20209;-43
2020/12/13 10:02:33;;;;;;;7.25;6.65;;;7.40;99.90;;;;;;4955118;28;20298;-43
2020/12/13 10:05:03;;;;;;;10.77;9.50;;;7.40;99.90;;;;;;4954957;29;20645;-44
2020/12/13 10:08:55;;;;;;;10.20;9.00;;;7.40;99.90;;;;;;4954655;28;20273;-41
2020/12/13 10:10:19;;;;;;;7.47;6.78;;;7.40;99.90;;;;;;4954738;28;20294;-41
2020/12/13 10:12:46;;;;;;;8.70;7.82;;;7.50;99.90;;;;;;4954856;29;20302;-44
2020/12/13 10:15:13;;;;;;;7.70;7.00;;;7.50;99.90;;;;;;4954414;28;20663;-43
2020/12/13 10:17:41;;;;;;;7.53;6.82;;;7.40;99.90;;;;;;4954688;29;20219;-41
2020/12/13 10:20:09;;;;;;;5.70;5.20;;;7.50;99.90;;;;;;4954595;28;20299;-40
2020/12/13 10:22:36;;;;;;;6.40;5.73;;;7.40;99.90;;;;;;4954393;28;20222;-43
2020/12/13 10:25:03;;;;;;;6.25;5.60;;;7.40;99.90;;;;;;4954462;29;20226;-41
2020/12/13 10:27:34;;;;;;;6.43;5.93;;;7.40;99.90;;;;;;4954191;29;20211;-40
2020/12/13 10:30:01;;;;;;;6.22;5.70;;;7.40;99.90;;;;;;4954506;29;20277;-44
2020/12/13 10:32:28;;;;;;;5.88;5.38;;;7.50;99.90;;;;;;4954213;28;20211;-41
2020/12/13 10:34:56;;;;;;;7.00;5.33;;;7.50;99.90;;;;;;4954315;29;20634;-41
2020/12/13 10:37:23;;;;;;;6.27;5.67;;;7.50;99.90;;;;;;4954278;29;20223;-41
2020/12/13 10:39:50;;;;;;;6.18;5.30;;;7.50;99.90;;;;;;4954277;28;20638;-43
2020/12/13 10:42:17;;;;;;;5.60;5.15;;;7.50;99.90;;;;;;4954225;28;20310;-41
2020/12/13 10:44:45;;;;;;;4.28;3.92;;;7.50;99.90;;;;;;4954222;29;20218;-42
2020/12/13 10:47:12;;;;;;;5.27;4.77;;;7.50;99.90;;;;;;4954041;28;20226;-44
2020/12/13 10:49:40;;;;;;;5.93;3.90;;;7.50;99.90;;;;;;4954208;29;20215;-43
2020/12/13 10:52:07;;;;;;;5.10;4.67;;;7.40;99.90;;;;;;4954321;28;20211;-41
2020/12/13 10:54:35;;;;;;;4.50;4.17;;;7.40;99.90;;;;;;4954575;28;20302;-41
2020/12/13 10:57:03;;;;;;;7.50;6.80;;;7.40;99.90;;;;;;4954058;28;20241;-41
2020/12/13 10:59:30;;;;;;;3.70;3.40;;;7.40;99.90;;;;;;4954019;28;20306;-44
2020/12/13 11:01:57;;;;;;;4.60;4.20;;;7.50;99.90;;;;;;4954399;28;20631;-41
2020/12/13 11:04:28;;;;;;;4.43;4.03;;;7.40;99.90;;;;;;4953712;28;20218;-42
2020/12/13 11:06:55;;;;;;;4.27;3.87;;;7.50;99.90;;;;;;4954089;29;20207;-42
2020/12/13 11:09:22;;;;;;;4.70;4.30;;;7.50;99.90;;;;;;4954270;28;20315;-42
2020/12/13 11:11:50;;;;;;;4.22;3.92;;;7.50;99.90;;;;;;4953891;29;20262;-41
2020/12/13 11:14:17;;;;;;;6.20;5.00;;;7.60;99.90;;;;;;4953815;28;20298;-42
2020/12/13 11:16:46;;;;;;;4.78;4.38;;;7.60;99.90;;;;;;4953674;28;20246;-42
2020/12/13 11:19:14;;;;;;;3.93;3.63;;;7.70;99.90;;;;;;4953718;28;20258;-41
2020/12/13 11:21:44;;;;;;;4.83;3.87;;;7.70;99.90;;;;;;4954026;29;20254;-41
2020/12/13 11:24:11;;;;;;;5.00;4.50;;;7.80;99.90;;;;;;4953803;28;20207;-44
2020/12/13 11:26:38;;;;;;;4.30;3.77;;;7.80;99.90;;;;;;4955381;28;20207;-42
2020/12/13 11:29:06;;;;;;;5.50;4.77;;;7.70;99.90;;;;;;4954137;28;20616;-41
2020/12/13 11:31:33;;;;;;;4.03;3.72;;;7.80;99.90;;;;;;4953779;28;20215;-41
2020/12/13 11:34:01;;;;;;;4.70;4.30;;;7.80;99.90;;;;;;4953865;28;20223;-42
2020/12/13 11:36:28;;;;;;;4.82;4.40;;;7.80;99.90;;;;;;4953520;29;20671;-42
2020/12/13 11:38:55;;;;;;;4.20;3.80;;;7.80;99.90;;;;;;4954030;29;20623;-43
2020/12/13 11:41:25;;;;;;;4.30;3.90;;;7.80;99.90;;;;;;4953740;29;20299;-43
2020/12/13 11:43:53;;;;;;;4.28;3.78;;;7.80;99.90;;;;;;4953741;28;20219;-41
2020/12/13 11:46:21;;;;;;;3.72;3.42;;;7.80;99.90;;;;;;4953501;29;20243;-41
2020/12/13 11:48:48;;;;;;;4.22;3.55;;;7.80;99.90;;;;;;4953823;29;20215;-44
2020/12/13 11:51:15;;;;;;;4.03;3.67;;;7.80;99.90;;;;;;4953490;29;20725;-43
2020/12/13 11:53:42;;;;;;;3.90;3.60;;;7.80;99.90;;;;;;4953597;28;20682;-41
2020/12/13 11:56:09;;;;;;;3.97;3.67;;;7.80;99.90;;;;;;4953562;29;20682;-41
2020/12/13 11:58:36;;;;;;;9.13;3.65;;;7.80;99.90;;;;;;4953482;28;20214;-41
2020/12/13 12:01:06;;;;;;;3.93;3.60;;;7.80;99.90;;;;;;4953315;29;20212;-42
2020/12/13 12:03:35;;;;;;;4.90;3.53;;;7.90;99.90;;;;;;4953621;28;20258;-41
2020/12/13 12:06:02;;;;;;;4.15;3.75;;;7.90;99.90;;;;;;4953451;29;20694;-42
2020/12/13 12:08:29;;;;;;;4.50;4.20;;;7.90;99.90;;;;;;4953493;29;20679;-43
2020/12/13 12:10:57;;;;;;;4.43;4.03;;;7.90;99.90;;;;;;4953522;29;20217;-41
2020/12/13 12:13:24;;;;;;;4.68;4.22;;;7.90;99.90;;;;;;4953575;28;20216;-43
2020/12/13 12:15:52;;;;;;;4.07;3.78;;;7.80;99.90;;;;;;4953575;28;20590;-42
2020/12/13 12:18:19;;;;;;;4.53;4.13;;;7.80;99.90;;;;;;4957473;28;20211;-42
2020/12/13 12:20:47;;;;;;;4.55;4.15;;;7.80;99.90;;;;;;4956712;28;20370;-42
2020/12/13 12:23:14;;;;;;;5.70;5.20;;;7.80;99.90;;;;;;4956861;29;20223;-41
2020/12/13 12:25:48;;;;;;;14.63;12.10;;;7.70;99.90;;;;;;4956680;28;20207;-43
2020/12/13 12:28:15;;;;;;;4.85;4.45;;;7.80;99.90;;;;;;4956601;29;20618;-43
2020/12/13 12:30:43;;;;;;;4.88;4.47;;;7.80;99.90;;;;;;4956760;29;20298;-42
2020/12/13 12:33:10;;;;;;;4.75;4.35;;;7.80;99.90;;;;;;4956529;29;20212;-41
2020/12/13 12:35:37;;;;;;;5.22;4.72;;;7.80;99.90;;;;;;4956545;28;20216;-40
2020/12/13 12:38:05;;;;;;;4.80;4.40;;;7.80;99.90;;;;;;4956637;29;20216;-41
2020/12/13 12:40:32;;;;;;;6.53;5.95;;;7.80;99.90;;;;;;4956333;28;20306;-41
2020/12/13 12:42:59;;;;;;;5.18;4.78;;;7.80;99.90;;;;;;4956383;28;20236;-43
2020/12/13 12:45:26;;;;;;;5.13;4.53;;;7.80;99.90;;;;;;4956265;29;20294;-41
2020/12/13 12:47:53;;;;;;;6.53;6.00;;;7.80;99.90;;;;;;4956066;28;20351;-41
2020/12/13 12:50:20;;;;;;;5.72;5.22;;;7.80;99.90;;;;;;4956519;29;20310;-42
2020/12/13 12:52:47;;;;;;;6.87;6.27;;;7.80;99.90;;;;;;4956468;28;20295;-41
2020/12/13 12:55:15;;;;;;;5.88;5.40;;;7.70;99.90;;;;;;4964511;28;20561;-41
2020/12/13 12:57:42;;;;;;;7.37;5.70;;;7.70;99.90;;;;;;4956011;29;20235;-41
2020/12/13 13:00:38;;;;;;;5.53;5.03;;;7.70;99.90;;;;;;4956184;29;20254;-41
2020/12/13 13:03:06;;;;;;;7.60;6.97;;;7.70;99.90;;;;;;4956011;29;20686;-42
2020/12/13 13:05:39;;;;;;;10.77;9.70;;;7.70;99.90;;;;;;4956273;29;20258;-42